createdAt,value
2022-10-10T00:01:09.514Z,4.20
2022-10-10T00:03:37.510Z,4.20
2022-10-10T00:06:06.118Z,4.20
2022-10-10T00:08:34.272Z,4.10
2022-10-10T00:11:04.378Z,3.90
2022-10-10T00:13:32.841Z,3.90
2022-10-10T00:16:00.853Z,4.00
2022-10-10T00:18:28.999Z,3.80
2022-10-10T00:20:57.032Z,3.80
2022-10-10T00:23:25.552Z,3.80
2022-10-10T00:25:53.617Z,3.50
2022-10-10T00:28:23.263Z,3.50
2022-10-10T00:30:51.329Z,3.50
2022-10-10T00:33:19.633Z,3.50
2022-10-10T00:35:47.643Z,3.30
2022-10-10T00:38:15.989Z,3.40
2022-10-10T00:40:48.840Z,3.40
2022-10-10T00:43:17.466Z,3.20
2022-10-10T00:45:48.541Z,3.30
2022-10-10T00:48:20.051Z,3.30
2022-10-10T00:50:51.744Z,3.30
2022-10-10T00:53:23.827Z,3.20
2022-10-10T00:55:53.172Z,2.90
2022-10-10T00:58:22.801Z,2.90
2022-10-10T01:00:53.084Z,2.80
2022-10-10T01:03:21.227Z,2.90
2022-10-10T01:05:50.748Z,2.60
2022-10-10T01:08:20.117Z,2.60
2022-10-10T01:11:11.417Z,2.70
2022-10-10T01:13:47.250Z,2.70
2022-10-10T01:16:24.726Z,2.80
2022-10-10T01:19:00.620Z,2.80
2022-10-10T01:21:38.549Z,2.80
2022-10-10T01:24:31.952Z,2.80
2022-10-10T01:27:17.379Z,2.80
2022-10-10T01:29:49.810Z,2.70
2022-10-10T01:32:24.780Z,2.70
2022-10-10T01:35:04.656Z,2.70
2022-10-10T01:37:41.705Z,2.70
2022-10-10T01:40:15.411Z,2.70
2022-10-10T01:42:49.890Z,2.70
2022-10-10T01:45:19.629Z,2.60
2022-10-10T01:47:48.463Z,2.60
2022-10-10T01:50:19.748Z,2.60
2022-10-10T01:52:58.661Z,2.50
2022-10-10T01:55:38.150Z,2.60
2022-10-10T01:58:18.680Z,2.50
2022-10-10T02:00:54.203Z,2.50
2022-10-10T02:03:29.071Z,2.40
2022-10-10T02:06:01.381Z,2.40
2022-10-10T02:08:35.152Z,2.50
2022-10-10T02:11:05.997Z,2.50
2022-10-10T02:13:39.151Z,2.50
2022-10-10T02:16:14.936Z,2.50
2022-10-10T02:18:46.067Z,2.50
2022-10-10T02:21:15.941Z,2.50
2022-10-10T02:23:46.482Z,2.50
2022-10-10T02:26:17.274Z,2.40
2022-10-10T02:28:51.400Z,2.40
2022-10-10T02:31:28.588Z,2.40
2022-10-10T02:34:01.169Z,2.40
2022-10-10T02:36:30.529Z,2.50
2022-10-10T02:39:00.402Z,2.50
2022-10-10T02:41:30.588Z,2.50
2022-10-10T02:43:59.300Z,2.50
2022-10-10T02:46:28.641Z,2.30
2022-10-10T02:48:56.632Z,2.20
2022-10-10T02:51:28.520Z,2.10
2022-10-10T02:53:58.233Z,2.10
2022-10-10T02:56:26.208Z,2.10
2022-10-10T02:58:54.364Z,2.10
2022-10-10T03:01:22.439Z,2.10
2022-10-10T03:03:51.889Z,2.10
2022-10-10T03:06:19.866Z,2.00
2022-10-10T03:08:47.871Z,2.00
2022-10-10T03:11:15.872Z,2.20
2022-10-10T03:13:43.860Z,1.90
2022-10-10T03:16:11.857Z,1.80
2022-10-10T03:18:39.930Z,1.80
2022-10-10T03:21:09.291Z,2.00
2022-10-10T03:23:37.310Z,1.80
2022-10-10T03:26:05.961Z,1.80
2022-10-10T03:28:34.002Z,1.70
2022-10-10T03:31:02.000Z,1.60
2022-10-10T03:33:30.028Z,1.70
2022-10-10T03:35:58.043Z,1.60
2022-10-10T03:38:27.393Z,1.70
2022-10-10T03:40:55.494Z,1.60
2022-10-10T03:43:23.488Z,1.90
2022-10-10T03:45:51.897Z,1.70
2022-10-10T03:48:19.898Z,1.60
2022-10-10T03:50:47.920Z,1.50
2022-10-10T03:53:15.921Z,1.30
2022-10-10T03:55:45.316Z,1.30
2022-10-10T03:58:13.655Z,1.70
2022-10-10T04:00:41.651Z,1.50
2022-10-10T04:03:09.685Z,1.60
2022-10-10T04:05:38.776Z,1.70
2022-10-10T04:08:07.282Z,1.70
2022-10-10T04:10:35.287Z,1.70
2022-10-10T04:13:04.720Z,1.80
2022-10-10T04:15:32.878Z,1.80
2022-10-10T04:18:01.317Z,2.50
2022-10-10T04:20:29.411Z,1.90
2022-10-10T04:22:57.427Z,1.90
2022-10-10T04:25:25.583Z,2.00
2022-10-10T04:27:56.164Z,1.90
2022-10-10T04:30:32.963Z,2.00
2022-10-10T04:33:01.086Z,2.00
2022-10-10T04:35:29.082Z,2.70
2022-10-10T04:37:57.087Z,2.00
2022-10-10T04:40:26.832Z,1.90
2022-10-10T04:42:55.150Z,1.90
2022-10-10T04:45:26.499Z,2.00
2022-10-10T04:47:56.296Z,2.00
2022-10-10T04:50:24.678Z,2.10
2022-10-10T04:52:53.052Z,2.10
2022-10-10T04:55:21.189Z,2.10
2022-10-10T04:57:49.196Z,2.40
2022-10-10T05:00:17.241Z,2.00
2022-10-10T05:02:45.301Z,2.00
2022-10-10T05:05:14.700Z,2.00
2022-10-10T05:07:42.708Z,2.10
2022-10-10T05:10:11.124Z,2.00
2022-10-10T05:12:39.137Z,2.10
2022-10-10T05:15:07.902Z,2.10
2022-10-10T05:17:35.889Z,2.10
2022-10-10T05:20:03.907Z,2.20
2022-10-10T05:22:33.595Z,2.20
2022-10-10T05:25:01.630Z,2.40
2022-10-10T05:27:30.185Z,2.20
2022-10-10T05:29:58.159Z,2.40
2022-10-10T05:32:26.141Z,2.40
2022-10-10T05:34:54.113Z,2.40
2022-10-10T05:37:22.099Z,2.40
2022-10-10T05:39:54.713Z,2.50
2022-10-10T05:42:22.998Z,2.40
2022-10-10T05:44:50.942Z,2.50
2022-10-10T05:47:19.001Z,2.50
2022-10-10T05:49:46.986Z,2.40
2022-10-10T05:52:14.971Z,2.50
2022-10-10T05:54:42.946Z,2.50
2022-10-10T05:57:16.167Z,2.60
2022-10-10T05:59:44.473Z,2.60
2022-10-10T06:02:13.535Z,2.60
2022-10-10T06:04:41.786Z,2.50
2022-10-10T06:07:10.083Z,2.70
2022-10-10T06:09:38.316Z,2.80
2022-10-10T06:12:06.322Z,2.90
2022-10-10T06:14:35.706Z,3.00
2022-10-10T06:17:04.650Z,3.20
2022-10-10T06:19:32.834Z,3.30
2022-10-10T06:22:01.380Z,3.40
2022-10-10T06:24:29.778Z,3.60
2022-10-10T06:26:57.755Z,3.80
2022-10-10T06:29:25.953Z,3.90
2022-10-10T06:31:55.339Z,4.00
2022-10-10T06:34:23.375Z,4.10
2022-10-10T06:36:52.031Z,4.20
2022-10-10T06:39:20.082Z,4.40
2022-10-10T06:41:49.863Z,4.50
2022-10-10T06:44:18.477Z,4.60
2022-10-10T06:46:46.579Z,4.80
2022-10-10T06:49:15.930Z,4.90
2022-10-10T06:51:43.984Z,5.00
2022-10-10T06:54:12.708Z,5.10
2022-10-10T06:56:40.735Z,5.20
2022-10-10T06:59:08.821Z,5.40
2022-10-10T07:01:36.830Z,5.60
2022-10-10T07:04:05.383Z,5.70
2022-10-10T07:06:35.183Z,5.90
2022-10-10T07:09:03.473Z,6.00
2022-10-10T07:11:31.489Z,6.20
2022-10-10T07:13:59.865Z,6.30
2022-10-10T07:16:27.997Z,6.40
2022-10-10T07:18:56.554Z,6.60
2022-10-10T07:21:24.538Z,6.70
2022-10-10T07:23:53.888Z,6.90
2022-10-10T07:26:22.633Z,7.00
2022-10-10T07:28:50.801Z,7.10
2022-10-10T07:31:18.783Z,7.30
2022-10-10T07:33:50.372Z,7.40
2022-10-10T07:36:20.645Z,7.60
2022-10-10T07:38:52.028Z,7.70
2022-10-10T07:41:21.927Z,7.80
2022-10-10T07:43:54.873Z,8.00
2022-10-10T07:46:23.262Z,8.10
2022-10-10T07:48:51.335Z,8.10
2022-10-10T07:51:19.537Z,8.30
2022-10-10T07:53:47.548Z,8.40
2022-10-10T07:56:15.539Z,8.50
2022-10-10T07:58:44.894Z,8.70
2022-10-10T08:01:14.248Z,8.80
2022-10-10T08:03:42.405Z,8.90
2022-10-10T08:06:12.701Z,9.00
2022-10-10T08:08:50.395Z,9.10
2022-10-10T08:11:19.826Z,9.30
2022-10-10T08:13:49.749Z,9.40
2022-10-10T08:16:18.120Z,9.50
2022-10-10T08:18:46.557Z,9.70
2022-10-10T08:21:17.034Z,9.70
2022-10-10T08:23:47.882Z,9.80
2022-10-10T08:26:17.834Z,9.90
2022-10-10T08:28:47.425Z,9.90
2022-10-10T08:31:19.783Z,9.90
2022-10-10T08:33:48.754Z,10.10
2022-10-10T08:36:18.626Z,10.10
2022-10-10T08:38:47.299Z,10.20
2022-10-10T08:41:24.498Z,10.30
2022-10-10T08:43:56.132Z,10.40
2022-10-10T08:46:36.280Z,10.50
2022-10-10T08:49:14.292Z,10.60
2022-10-10T08:51:47.724Z,10.70
2022-10-10T08:54:18.959Z,10.70
2022-10-10T08:56:47.599Z,10.90
2022-10-10T08:59:19.414Z,10.90
2022-10-10T09:02:17.562Z,11.00
2022-10-10T09:04:39.354Z,11.10
2022-10-10T09:07:24.703Z,11.20
2022-10-10T09:10:01.633Z,11.50
2022-10-10T09:12:38.333Z,11.60
2022-10-10T09:15:15.381Z,11.70
2022-10-10T09:17:51.587Z,11.70
2022-10-10T09:20:34.306Z,11.70
2022-10-10T09:23:10.237Z,11.90
2022-10-10T09:25:43.343Z,12.10
2022-10-10T09:28:17.635Z,12.30
2022-10-10T09:30:50.596Z,12.40
2022-10-10T09:33:27.401Z,12.50
2022-10-10T09:35:57.748Z,12.60
2022-10-10T09:38:35.085Z,12.70
2022-10-10T09:41:08.672Z,12.60
2022-10-10T09:43:36.801Z,12.60
2022-10-10T09:46:04.849Z,12.60
2022-10-10T09:48:37.228Z,12.70
2022-10-10T09:51:07.648Z,12.60
2022-10-10T09:53:35.871Z,12.90
2022-10-10T09:56:06.643Z,13.00
2022-10-10T09:58:38.403Z,13.20
2022-10-10T10:01:18.317Z,13.30
2022-10-10T10:04:23.539Z,13.50
2022-10-10T10:07:05.875Z,13.30
2022-10-10T10:09:34.463Z,13.30
2022-10-10T10:12:05.706Z,13.40
2022-10-10T10:14:37.751Z,13.60
2022-10-10T10:17:11.190Z,13.60
2022-10-10T10:19:42.225Z,13.90
2022-10-10T10:22:34.628Z,13.80
2022-10-10T10:25:33.543Z,14.00
2022-10-10T10:28:17.978Z,14.10
2022-10-10T10:30:46.760Z,14.30
2022-10-10T10:33:21.758Z,14.10
2022-10-10T10:35:54.552Z,14.10
2022-10-10T10:38:35.351Z,14.40
2022-10-10T10:41:08.683Z,14.40
2022-10-10T10:44:02.079Z,14.50
2022-10-10T10:46:40.288Z,14.50
2022-10-10T10:49:16.097Z,14.50
2022-10-10T10:52:16.830Z,14.70
2022-10-10T10:55:02.091Z,15.20
2022-10-10T10:58:04.166Z,15.60
2022-10-10T11:05:17.598Z,15.30
2022-10-10T11:07:00.152Z,15.50
2022-10-10T11:09:56.124Z,15.70
2022-10-10T11:12:40.813Z,15.80
2022-10-10T11:15:16.337Z,15.70
2022-10-10T11:17:48.720Z,16.40
2022-10-10T11:20:25.707Z,16.10
2022-10-10T11:23:04.203Z,15.80
2022-10-10T11:25:44.013Z,16.00
2022-10-10T11:28:16.712Z,15.90
2022-10-10T11:30:50.660Z,15.60
2022-10-10T11:33:23.581Z,15.60
2022-10-10T11:35:56.486Z,15.60
2022-10-10T11:38:29.235Z,15.70
2022-10-10T11:41:03.752Z,15.80
2022-10-10T11:43:40.329Z,15.90
2022-10-10T11:46:17.286Z,15.70
2022-10-10T11:48:53.618Z,15.70
2022-10-10T11:51:31.226Z,15.60
2022-10-10T11:54:05.613Z,15.60
2022-10-10T11:56:40.745Z,15.50
2022-10-10T11:59:16.413Z,15.80
2022-10-10T12:01:49.876Z,16.10
2022-10-10T12:04:18.142Z,16.00
2022-10-10T12:06:50.173Z,15.80
2022-10-10T12:09:24.967Z,15.70
2022-10-10T12:12:00.496Z,15.90
2022-10-10T12:14:31.816Z,16.20
2022-10-10T12:17:00.679Z,16.30
2022-10-10T12:19:30.269Z,16.20
2022-10-10T12:22:05.615Z,16.40
2022-10-10T12:24:38.658Z,16.70
2022-10-10T12:27:43.670Z,17.00
2022-10-10T12:30:25.065Z,16.80
2022-10-10T12:32:55.330Z,17.00
2022-10-10T12:35:40.368Z,17.30
2022-10-10T12:38:20.832Z,17.10
2022-10-10T12:41:15.888Z,17.00
2022-10-10T12:43:50.646Z,16.80
2022-10-10T12:46:31.034Z,17.00
2022-10-10T12:49:18.417Z,17.10
2022-10-10T12:51:58.766Z,17.30
2022-10-10T12:54:31.599Z,17.50
2022-10-10T12:57:16.040Z,17.50
2022-10-10T12:59:45.827Z,17.20
2022-10-10T13:02:19.574Z,17.80
2022-10-10T13:04:49.803Z,18.10
2022-10-10T13:07:20.458Z,18.10
2022-10-10T13:09:50.631Z,17.70
2022-10-10T13:12:27.916Z,18.40
2022-10-10T13:14:58.032Z,18.30
2022-10-10T13:17:29.529Z,18.90
2022-10-10T13:19:59.054Z,19.40
2022-10-10T13:22:28.112Z,19.80
2022-10-10T13:24:56.577Z,19.80
2022-10-10T13:27:27.541Z,19.90
2022-10-10T13:29:57.869Z,21.10
2022-10-10T13:32:28.373Z,21.00
2022-10-10T13:35:01.701Z,21.40
2022-10-10T13:37:31.033Z,21.90
2022-10-10T13:39:59.608Z,21.80
2022-10-10T13:42:34.617Z,21.40
2022-10-10T13:45:29.418Z,21.60
2022-10-10T13:48:11.997Z,21.40
2022-10-10T13:50:53.775Z,21.30
2022-10-10T13:53:33.065Z,21.70
2022-10-10T13:56:05.540Z,21.00
2022-10-10T13:58:39.543Z,21.10
2022-10-10T14:01:36.235Z,21.60
2022-10-10T14:04:20.347Z,21.40
2022-10-10T14:07:01.240Z,20.90
2022-10-10T14:09:33.785Z,20.70
2022-10-10T14:12:04.318Z,20.20
2022-10-10T14:14:41.560Z,20.30
2022-10-10T14:17:12.862Z,20.10
2022-10-10T14:19:41.069Z,20.40
2022-10-10T14:22:09.476Z,19.90
2022-10-10T14:24:37.462Z,19.40
2022-10-10T14:27:15.860Z,18.90
2022-10-10T14:29:44.108Z,18.70
2022-10-10T14:32:14.946Z,18.90
2022-10-10T14:34:43.527Z,18.60
2022-10-10T14:37:18.487Z,18.60
2022-10-10T14:39:47.331Z,18.80
2022-10-10T14:42:16.743Z,18.50
2022-10-10T14:44:45.237Z,18.30
2022-10-10T14:47:18.295Z,17.90
2022-10-10T14:49:46.837Z,17.80
2022-10-10T14:52:15.293Z,18.00
2022-10-10T14:54:43.529Z,18.10
2022-10-10T14:57:13.168Z,18.40
2022-10-10T14:59:47.657Z,18.20
2022-10-10T15:02:22.359Z,18.00
2022-10-10T15:04:52.645Z,17.70
2022-10-10T15:07:20.806Z,18.00
2022-10-10T15:10:31.650Z,17.60
2022-10-10T15:12:40.198Z,17.60
2022-10-10T15:15:09.799Z,16.80
2022-10-10T15:17:39.268Z,16.20
2022-10-10T15:20:09.406Z,16.00
2022-10-10T15:22:38.038Z,15.70
2022-10-10T15:25:06.888Z,15.50
2022-10-10T15:27:34.961Z,15.30
2022-10-10T15:30:02.977Z,15.00
2022-10-10T15:32:30.961Z,14.80
2022-10-10T15:35:00.321Z,14.60
2022-10-10T15:37:28.696Z,14.40
2022-10-10T15:39:56.687Z,14.20
2022-10-10T15:42:24.674Z,14.10
2022-10-10T15:44:52.850Z,14.00
2022-10-10T15:47:21.418Z,13.80
2022-10-10T15:49:49.857Z,13.70
2022-10-10T15:52:19.850Z,13.60
2022-10-10T15:54:49.725Z,13.40
2022-10-10T15:57:19.109Z,13.40
2022-10-10T15:59:47.689Z,13.30
2022-10-10T16:02:15.955Z,13.20
2022-10-10T16:04:44.127Z,13.10
2022-10-10T16:07:25.808Z,13.00
2022-10-10T16:10:01.204Z,13.00
2022-10-10T16:12:29.507Z,12.80
2022-10-10T16:14:57.526Z,12.80
2022-10-10T16:17:25.513Z,12.70
2022-10-10T16:19:53.546Z,12.70
2022-10-10T16:22:21.578Z,12.60
2022-10-10T16:25:10.250Z,12.50
2022-10-10T16:27:39.777Z,12.40
2022-10-10T16:30:08.979Z,12.30
2022-10-10T16:32:41.957Z,12.20
2022-10-10T16:35:11.169Z,12.10
2022-10-10T16:37:39.386Z,12.10
2022-10-10T16:40:08.823Z,12.10
2022-10-10T16:42:38.361Z,12.10
2022-10-10T16:45:07.593Z,12.00
2022-10-10T16:47:35.939Z,11.90
2022-10-10T16:50:05.297Z,11.90
2022-10-10T16:52:37.936Z,11.90
2022-10-10T16:55:07.793Z,11.80
2022-10-10T16:57:36.226Z,11.80
2022-10-10T17:00:07.180Z,11.80
2022-10-10T17:02:38.713Z,11.70
2022-10-10T17:05:07.799Z,11.70
2022-10-10T17:07:36.365Z,11.60
2022-10-10T17:10:04.637Z,11.60
2022-10-10T17:12:33.159Z,11.50
2022-10-10T17:15:01.629Z,11.50
2022-10-10T17:17:31.039Z,11.50
2022-10-10T17:19:59.080Z,11.80
2022-10-10T17:22:27.093Z,11.40
2022-10-10T17:24:55.141Z,11.40
2022-10-10T17:27:23.133Z,11.40
2022-10-10T17:29:53.067Z,11.40
2022-10-10T17:32:21.861Z,11.40
2022-10-10T17:34:51.241Z,11.40
2022-10-10T17:37:19.262Z,11.40
2022-10-10T17:39:47.409Z,11.30
2022-10-10T17:42:15.414Z,11.30
2022-10-10T17:44:50.326Z,11.30
2022-10-10T17:47:20.515Z,11.20
2022-10-10T17:49:49.966Z,11.20
2022-10-10T17:52:21.279Z,11.20
2022-10-10T17:54:49.620Z,11.20
2022-10-10T17:57:17.883Z,11.20
2022-10-10T17:59:45.896Z,11.10
2022-10-10T18:02:16.971Z,11.10
2022-10-10T18:04:45.563Z,11.10
2022-10-10T18:07:15.969Z,11.10
2022-10-10T18:09:44.194Z,11.00
2022-10-10T18:12:12.603Z,11.00
2022-10-10T18:14:40.652Z,11.00
2022-10-10T18:17:08.804Z,10.90
2022-10-10T18:19:36.858Z,10.90
2022-10-10T18:22:05.865Z,10.80
2022-10-10T18:24:35.486Z,10.80
2022-10-10T18:27:03.905Z,10.80
2022-10-10T18:29:32.393Z,10.80
2022-10-10T18:32:00.793Z,10.80
2022-10-10T18:34:29.208Z,10.70
2022-10-10T18:36:57.542Z,10.70
2022-10-10T18:39:30.802Z,10.70
2022-10-10T18:42:02.600Z,10.70
2022-10-10T18:44:31.003Z,10.70
2022-10-10T18:46:59.610Z,10.60
2022-10-10T18:49:28.074Z,10.60
2022-10-10T18:51:56.386Z,10.60
2022-10-10T18:54:27.367Z,10.60
2022-10-10T18:56:55.627Z,10.60
2022-10-10T18:59:25.372Z,10.60
2022-10-10T19:01:53.872Z,10.70
2022-10-10T19:04:22.805Z,10.60
2022-10-10T19:06:56.805Z,10.60
2022-10-10T19:09:26.899Z,10.60
2022-10-10T19:11:55.314Z,10.70
2022-10-10T19:14:24.825Z,10.70
2022-10-10T19:16:52.898Z,10.60
2022-10-10T19:19:21.556Z,10.60
2022-10-10T19:21:49.860Z,10.70
2022-10-10T19:24:21.002Z,10.70
2022-10-10T19:26:53.390Z,10.60
2022-10-10T19:29:22.195Z,10.60
2022-10-10T19:31:52.341Z,10.60
2022-10-10T19:34:20.610Z,10.70
2022-10-10T19:36:48.859Z,10.70
2022-10-10T19:39:16.925Z,10.60
2022-10-10T19:41:44.906Z,10.60
2022-10-10T19:44:13.308Z,10.70
2022-10-10T19:46:41.514Z,10.50
2022-10-10T19:49:11.053Z,10.50
2022-10-10T19:51:39.457Z,10.00
2022-10-10T19:54:07.487Z,10.40
2022-10-10T19:56:36.718Z,10.40
2022-10-10T19:59:05.799Z,10.40
2022-10-10T20:01:34.484Z,10.30
2022-10-10T20:04:02.808Z,10.30
2022-10-10T20:06:32.180Z,10.30
2022-10-10T20:09:00.222Z,10.20
2022-10-10T20:11:28.288Z,10.30
2022-10-10T20:13:57.388Z,10.30
2022-10-10T20:16:27.244Z,10.20
2022-10-10T20:18:56.341Z,10.20
2022-10-10T20:21:29.208Z,10.10
2022-10-10T20:23:59.721Z,10.10
2022-10-10T20:26:28.195Z,10.20
2022-10-10T20:28:57.461Z,10.50
2022-10-10T20:31:26.965Z,10.20
2022-10-10T20:33:58.000Z,10.20
2022-10-10T20:36:28.743Z,10.40
2022-10-10T20:39:00.605Z,10.30
2022-10-10T20:41:31.114Z,10.40
2022-10-10T20:44:01.126Z,10.50
2022-10-10T20:46:33.038Z,10.40
2022-10-10T20:49:02.747Z,10.50
2022-10-10T20:51:31.098Z,10.50
2022-10-10T20:54:02.400Z,10.50
2022-10-10T20:56:31.473Z,10.60
2022-10-10T20:59:00.424Z,10.60
2022-10-10T21:01:30.597Z,10.60
2022-10-10T21:03:59.668Z,10.60
2022-10-10T21:06:29.451Z,10.60
2022-10-10T21:08:59.564Z,10.60
2022-10-10T21:11:29.033Z,10.50
2022-10-10T21:13:59.252Z,10.50
2022-10-10T21:16:30.603Z,10.50
2022-10-10T21:18:58.896Z,10.50
2022-10-10T21:21:28.290Z,10.50
2022-10-10T21:23:56.917Z,10.40
2022-10-10T21:26:26.371Z,10.40
2022-10-10T21:28:56.505Z,10.80
2022-10-10T21:31:26.605Z,10.50
2022-10-10T21:33:55.482Z,10.40
2022-10-10T21:36:25.603Z,10.40
2022-10-10T21:38:53.800Z,10.40
2022-10-10T21:41:22.676Z,10.30
2022-10-10T21:43:52.921Z,10.30
2022-10-10T21:46:24.875Z,10.30
2022-10-10T21:48:53.352Z,10.30
2022-10-10T21:51:22.413Z,10.30
2022-10-10T21:53:51.081Z,10.30
2022-10-10T21:56:19.419Z,10.20
2022-10-10T21:58:47.421Z,10.20
2022-10-10T22:01:17.734Z,10.20
2022-10-10T22:03:49.139Z,10.60
2022-10-10T22:06:20.645Z,10.20
2022-10-10T22:08:49.539Z,10.20
2022-10-10T22:11:20.181Z,10.10
2022-10-10T22:13:48.243Z,10.10
2022-10-10T22:16:16.327Z,10.10
2022-10-10T22:18:44.372Z,10.10
2022-10-10T22:21:16.241Z,10.00
2022-10-10T22:23:44.429Z,10.00
2022-10-10T22:26:14.829Z,10.00
2022-10-10T22:28:43.091Z,10.00
2022-10-10T22:31:13.341Z,10.00
2022-10-10T22:33:41.410Z,9.90
2022-10-10T22:36:10.447Z,9.90
2022-10-10T22:38:42.061Z,9.90
2022-10-10T22:41:11.136Z,9.90
2022-10-10T22:43:39.597Z,9.80
2022-10-10T22:46:08.165Z,9.80
2022-10-10T22:48:36.970Z,9.70
2022-10-10T22:51:07.512Z,9.70
2022-10-10T22:53:35.942Z,9.60
2022-10-10T22:56:06.137Z,9.60
2022-10-10T22:58:34.556Z,9.50
2022-10-10T23:01:06.958Z,9.50
2022-10-10T23:03:35.095Z,9.50
2022-10-10T23:06:03.637Z,9.40
2022-10-10T23:08:32.278Z,9.40
2022-10-10T23:11:00.726Z,10.10
2022-10-10T23:13:30.434Z,9.30
2022-10-10T23:15:58.482Z,9.30
2022-10-10T23:18:26.581Z,9.20
2022-10-10T23:20:54.580Z,9.20
2022-10-10T23:23:22.551Z,9.10
2022-10-10T23:25:50.560Z,9.10
2022-10-10T23:28:19.506Z,9.10
2022-10-10T23:30:49.757Z,9.00
2022-10-10T23:33:18.245Z,9.00
2022-10-10T23:35:46.208Z,9.00
2022-10-10T23:38:14.233Z,9.10
2022-10-10T23:40:42.209Z,8.90
2022-10-10T23:43:10.686Z,8.90
2022-10-10T23:45:41.290Z,8.90
2022-10-10T23:48:10.636Z,8.90
2022-10-10T23:50:38.620Z,8.80
2022-10-10T23:53:06.650Z,8.80
2022-10-10T23:55:34.907Z,8.90
2022-10-10T23:58:03.354Z,8.70
